Time;durP1;ratioP1;P1;durP2;ratioP2;P2;SDS_P1;SDS_P2;PMS_P1;PMS_P2;Temp;Humidity;BMP_temperature;BMP_pressure;BME280_temperature;BME280_humidity;BME280_pressure;Samples;Min_cycle;Max_cycle;Signal;HPM_P1;HPM_P2
2023/12/03 00:02:24;;;;;;;79.00;28.60;;;;;;;6.92;56.55;98614.15;108294;1254;71590;-65
2023/12/03 00:04:52;;;;;;;85.00;32.20;;;;;;;6.90;56.44;98613.52;108066;1254;70589;-65
2023/12/03 00:07:21;;;;;;;88.90;31.80;;;;;;;7.02;56.29;98602.70;108119;1254;60700;-66
2023/12/03 00:09:48;;;;;;;95.70;33.10;;;;;;;7.04;56.11;98584.96;108194;1254;60428;-66
2023/12/03 00:12:16;;;;;;;75.10;29.30;;;;;;;7.25;55.90;98575.92;108059;1253;73824;-65
2023/12/03 00:14:43;;;;;;;74.70;28.90;;;;;;;7.38;55.33;98564.47;108187;1256;69037;-66
2023/12/03 00:17:11;;;;;;;72.90;27.80;;;;;;;7.46;55.20;98559.20;108182;1253;71348;-67
2023/12/03 00:19:40;;;;;;;71.20;29.70;;;;;;;7.53;54.99;98560.44;108181;1254;61045;-66
2023/12/03 00:22:08;;;;;;;62.90;25.20;;;;;;;7.42;55.32;98577.02;108250;1254;60323;-65
2023/12/03 00:24:35;;;;;;;76.90;29.00;;;;;;;7.43;55.40;98588.49;108276;1254;72637;-65
2023/12/03 00:27:05;;;;;;;71.20;29.20;;;;;;;7.44;55.30;98576.09;108160;1254;68869;-66
2023/12/03 00:29:33;;;;;;;73.20;28.90;;;;;;;7.35;55.61;98566.17;108239;1254;71230;-66
2023/12/03 00:32:00;;;;;;;57.20;25.10;;;;;;;7.46;55.38;98561.11;108177;1252;60443;-65
2023/12/03 00:34:28;;;;;;;69.00;28.30;;;;;;;7.48;55.28;98550.52;108071;1254;61143;-64
2023/12/03 00:36:55;;;;;;;67.30;27.00;;;;;;;7.37;55.48;98538.68;108150;1253;72869;-64
2023/12/03 00:39:23;;;;;;;65.20;27.70;;;;;;;7.61;55.20;98533.84;108056;1253;69991;-66
2023/12/03 00:41:51;;;;;;;77.50;30.80;;;;;;;7.66;54.82;98530.97;108175;1254;70804;-65
2023/12/03 00:44:18;;;;;;;79.80;31.50;;;;;;;7.72;54.51;98521.19;108033;1257;60988;-65
2023/12/03 00:46:46;;;;;;;71.90;29.70;;;;;;;7.62;54.78;98518.58;108079;1254;60199;-67
2023/12/03 00:49:13;;;;;;;72.00;28.30;;;;;;;7.54;55.07;98533.84;108162;1254;73848;-65
2023/12/03 00:51:41;;;;;;;72.10;27.80;;;;;;;7.59;54.99;98544.59;108163;1253;70010;-65
2023/12/03 00:54:08;;;;;;;63.90;26.90;;;;;;;7.56;55.31;98551.35;108274;1253;71434;-65
2023/12/03 00:56:36;;;;;;;63.60;26.40;;;;;;;7.66;55.09;98546.85;108205;1254;60296;-66
2023/12/03 00:59:04;;;;;;;75.40;28.20;;;;;;;7.52;55.29;98542.46;108198;1256;60900;-66
2023/12/03 01:01:31;;;;;;;60.50;23.10;;;;;;;7.30;55.76;98549.66;108087;1254;73768;-63
2023/12/03 01:03:59;;;;;;;64.80;25.90;;;;;;;7.45;55.45;98549.48;108085;1254;68813;-65
2023/12/03 01:06:27;;;;;;;71.70;26.10;;;;;;;7.48;55.53;98538.16;108104;1257;71274;-66
2023/12/03 01:08:55;;;;;;;72.90;27.40;;;;;;;7.57;55.19;98532.98;108051;1254;60473;-66
2023/12/03 01:11:23;;;;;;;85.90;31.20;;;;;;;7.77;54.69;98524.44;108059;1252;62271;-67
2023/12/03 01:14:03;;;;;;;76.30;29.80;;;;;;;7.83;54.54;98526.42;108062;1251;72834;-65
2023/12/03 01:16:32;;;;;;;59.70;25.60;;;;;;;7.88;54.57;98538.06;108151;1251;69976;-67
2023/12/03 01:19:00;;;;;;;70.60;29.20;;;;;;;7.86;54.73;98563.85;108033;1251;71471;-65
2023/12/03 01:21:28;;;;;;;62.20;25.20;;;;;;;7.88;54.88;98571.42;108076;1256;60304;-66
2023/12/03 01:23:55;;;;;;;71.00;28.10;;;;;;;7.99;54.61;98590.62;108129;1251;59531;-67
2023/12/03 01:26:23;;;;;;;59.90;24.80;;;;;;;8.09;54.43;98615.77;108166;1251;73026;-64
2023/12/03 01:28:52;;;;;;;61.90;25.10;;;;;;;8.25;54.10;98641.21;108127;1251;69063;-65
2023/12/03 01:31:20;;;;;;;66.40;26.80;;;;;;;8.32;53.99;98630.02;108067;1251;72813;-62
2023/12/03 01:33:48;;;;;;;68.70;28.20;;;;;;;8.32;53.83;98604.34;108088;1251;60843;-64
2023/12/03 01:36:16;;;;;;;66.00;27.80;;;;;;;8.27;54.02;98602.32;108144;1251;60239;-66
2023/12/03 01:38:43;;;;;;;64.60;26.80;;;;;;;8.26;54.05;98601.48;108169;1251;73839;-65
2023/12/03 01:41:11;;;;;;;67.50;27.00;;;;;;;8.25;54.18;98603.13;108124;1251;70284;-66
2023/12/03 01:43:51;;;;;;;71.30;29.10;;;;;;;8.25;54.24;98594.52;108041;1254;72696;-65
2023/12/03 01:46:20;;;;;;;57.00;23.80;;;;;;;8.32;54.16;98602.41;108060;1251;60662;-65
2023/12/03 01:48:48;;;;;;;59.20;24.20;;;;;;;8.44;54.06;98598.83;108070;1251;60341;-66
2023/12/03 01:51:15;;;;;;;61.70;25.40;;;;;;;8.57;53.64;98600.94;108159;1251;72629;-64
2023/12/03 01:53:43;;;;;;;56.70;24.20;;;;;;;8.57;53.59;98603.70;108151;1251;68922;-64
2023/12/03 01:56:11;;;;;;;63.60;27.40;;;;;;;8.65;53.40;98580.41;108090;1251;71171;-65
2023/12/03 01:58:42;;;;;;;73.70;28.80;;;;;;;8.59;53.43;98554.95;108112;1254;60318;-65
2023/12/03 02:01:09;;;;;;;60.40;25.10;;;;;;;8.50;53.48;98520.81;108157;1251;60286;-64
2023/12/03 02:03:38;;;;;;;68.80;28.90;;;;;;;8.48;53.57;98518.52;108203;1251;73892;-66
2023/12/03 02:06:14;;;;;;;69.10;28.10;;;;;;;8.44;53.54;98487.92;108095;1257;71046;-64
2023/12/03 02:08:42;;;;;;;57.40;25.70;;;;;;;8.38;53.65;98495.56;108081;1253;71485;-66
2023/12/03 02:11:10;;;;;;;61.20;26.70;;;;;;;8.41;53.53;98496.86;108123;1253;60996;-61
2023/12/03 02:13:38;;;;;;;64.00;26.30;;;;;;;8.24;53.93;98494.92;108024;1251;60561;-63
2023/12/03 02:16:07;;;;;;;57.70;24.90;;;;;;;8.12;54.38;98488.02;108072;1251;72616;-64
2023/12/03 02:18:34;;;;;;;62.80;26.40;;;;;;;8.04;54.58;98512.38;108131;1251;68696;-66
2023/12/03 02:21:03;;;;;;;60.20;23.90;;;;;;;8.04;54.49;98527.60;108157;1253;72711;-66
2023/12/03 02:23:31;;;;;;;59.70;24.50;;;;;;;7.87;54.93;98528.67;108147;1253;60574;-66
2023/12/03 02:25:58;;;;;;;61.70;26.00;;;;;;;8.07;54.70;98534.95;108099;1251;60183;-68
2023/12/03 02:31:43;;;;;;;53.70;23.50;;;;;;;5.25;63.58;98565.98;105622;1282;600804;-64
2023/12/03 02:34:11;;;;;;;55.50;23.00;;;;;;;6.46;59.84;98570.55;107562;1259;60825;-65
2023/12/03 02:36:39;;;;;;;60.30;25.30;;;;;;;6.60;59.18;98550.05;107601;1257;59107;-64
2023/12/03 02:39:07;;;;;;;61.10;26.00;;;;;;;6.80;58.70;98547.91;107728;1258;70577;-64
2023/12/03 02:41:34;;;;;;;49.30;21.30;;;;;;;6.99;58.12;98540.70;107722;1257;70101;-64
2023/12/03 02:44:02;;;;;;;61.60;25.30;;;;;;;7.03;57.99;98526.21;107803;1257;71448;-65
2023/12/03 02:46:30;;;;;;;54.80;23.30;;;;;;;6.91;58.38;98505.14;107867;1256;95949;-65
2023/12/03 02:48:57;;;;;;;63.50;25.70;;;;;;;7.03;58.05;98485.58;107884;1254;60005;-65
2023/12/03 02:51:25;;;;;;;63.20;27.00;;;;;;;6.91;58.34;98454.00;108055;1254;72032;-64
2023/12/03 02:53:52;;;;;;;63.30;26.10;;;;;;;6.82;58.59;98462.46;107962;1254;70020;-64
2023/12/03 02:56:20;;;;;;;67.50;28.50;;;;;;;6.94;58.36;98445.86;108068;1257;72666;-62
2023/12/03 02:58:47;;;;;;;61.80;26.50;;;;;;;6.91;58.38;98419.80;107962;1257;60187;-64
2023/12/03 03:01:15;;;;;;;53.50;23.10;;;;;;;7.02;58.15;98436.38;108008;1257;59559;-65
2023/12/03 03:03:42;;;;;;;50.60;22.50;;;;;;;7.05;58.01;98439.39;107647;1256;72320;-65
2023/12/03 03:06:10;;;;;;;48.80;21.90;;;;;;;7.06;58.17;98407.41;107817;1262;70054;-63
2023/12/03 03:08:38;;;;;;;50.10;21.90;;;;;;;7.04;58.22;98412.71;107819;1257;71192;-63
2023/12/03 03:11:06;;;;;;;51.70;22.50;;;;;;;7.09;57.92;98419.83;107766;1258;59957;-65
2023/12/03 03:13:33;;;;;;;56.70;21.20;;;;;;;7.25;57.65;98436.80;107673;1257;60010;-65
2023/12/03 03:16:01;;;;;;;60.70;24.80;;;;;;;7.30;57.59;98413.88;107791;1257;72845;-65
2023/12/03 03:18:28;;;;;;;46.60;22.00;;;;;;;7.12;58.02;98392.80;107803;1257;68713;-65
2023/12/03 03:20:56;;;;;;;45.70;20.00;;;;;;;7.12;57.95;98413.71;107786;1257;72230;-64
2023/12/03 03:23:23;;;;;;;49.70;21.70;;;;;;;7.15;57.89;98426.84;107727;1256;60218;-65
2023/12/03 03:25:51;;;;;;;48.50;21.30;;;;;;;7.18;58.02;98425.48;107795;1256;59529;-64
2023/12/03 03:28:20;;;;;;;43.80;20.40;;;;;;;7.15;57.97;98444.48;107807;1257;74816;-65
2023/12/03 03:30:48;;;;;;;52.70;21.70;;;;;;;7.23;58.01;98489.77;107891;1254;68989;-62
2023/12/03 03:33:15;;;;;;;62.40;23.80;;;;;;;7.10;58.35;98493.61;108166;1254;71635;-66
2023/12/03 03:35:43;;;;;;;53.70;22.00;;;;;;;7.14;58.18;98494.45;108057;1254;59773;-66
2023/12/03 03:38:11;;;;;;;53.50;23.50;;;;;;;7.07;58.51;98503.86;108174;1252;59676;-64
2023/12/03 03:40:38;;;;;;;58.90;24.10;;;;;;;7.10;58.32;98495.11;108134;1252;73056;-65
2023/12/03 03:43:06;;;;;;;55.00;23.30;;;;;;;7.24;57.82;98474.94;108072;1253;68990;-65
2023/12/03 03:45:34;;;;;;;56.10;23.40;;;;;;;7.34;57.70;98492.58;108072;1254;72710;-64
2023/12/03 03:48:01;;;;;;;57.00;23.20;;;;;;;7.36;57.66;98510.98;108079;1253;59663;-65
2023/12/03 03:50:29;;;;;;;52.40;22.10;;;;;;;7.24;57.96;98496.38;108034;1258;59490;-66
2023/12/03 03:52:56;;;;;;;51.70;23.00;;;;;;;7.26;58.06;98488.60;108088;1254;72836;-67
2023/12/03 03:55:24;;;;;;;62.00;25.30;;;;;;;7.15;58.06;98509.20;108121;1253;69930;-65
2023/12/03 03:57:52;;;;;;;56.10;25.00;;;;;;;7.11;58.49;98517.45;108026;1254;72646;-68
2023/12/03 04:00:19;;;;;;;59.00;26.10;;;;;;;7.19;58.32;98515.83;108058;1252;60845;-65
2023/12/03 04:02:47;;;;;;;52.60;22.50;;;;;;;7.15;58.50;98511.84;107963;1254;59491;-65
2023/12/03 04:05:15;;;;;;;57.50;23.80;;;;;;;7.13;58.56;98524.84;108055;1253;71709;-65
2023/12/03 04:07:42;;;;;;;60.70;23.30;;;;;;;7.19;58.37;98507.80;108114;1254;68878;-65
2023/12/03 04:10:10;;;;;;;54.50;23.00;;;;;;;7.22;58.31;98474.33;108094;1253;72423;-65
2023/12/03 04:12:37;;;;;;;63.80;25.30;;;;;;;7.22;58.24;98509.58;108023;1254;59549;-66
2023/12/03 04:15:06;;;;;;;57.70;23.00;;;;;;;7.22;58.33;98501.39;107935;1256;59594;-65
2023/12/03 04:17:33;;;;;;;60.00;24.80;;;;;;;7.35;58.00;98486.23;108122;1253;71533;-64
2023/12/03 04:20:01;;;;;;;61.40;24.10;;;;;;;7.44;57.72;98484.58;108156;1254;70282;-66
2023/12/03 04:22:29;;;;;;;55.60;23.60;;;;;;;7.39;57.97;98483.24;108176;1253;72673;-65
2023/12/03 04:24:56;;;;;;;55.10;22.70;;;;;;;7.38;58.11;98494.99;108072;1254;60809;-64
2023/12/03 04:27:25;;;;;;;50.10;22.70;;;;;;;7.37;57.99;98510.59;108080;1253;59393;-65
2023/12/03 04:29:52;;;;;;;54.80;22.90;;;;;;;7.32;58.31;98516.23;108116;1254;73033;-65
2023/12/03 04:32:20;;;;;;;62.10;26.00;;;;;;;7.34;58.29;98527.48;108053;1254;69264;-66
2023/12/03 04:34:47;;;;;;;54.40;23.20;;;;;;;7.41;57.93;98531.72;108130;1254;72781;-65
2023/12/03 04:37:15;;;;;;;70.40;24.70;;;;;;;7.33;58.36;98524.04;108035;1254;59671;-65
2023/12/03 04:39:43;;;;;;;59.40;25.20;;;;;;;7.38;58.35;98510.20;108093;1253;60012;-66
2023/12/03 04:42:11;;;;;;;58.30;25.00;;;;;;;7.30;58.34;98507.25;108170;1253;71836;-65
2023/12/03 04:44:38;;;;;;;71.80;27.50;;;;;;;7.07;59.00;98506.61;108099;1253;69190;-65
2023/12/03 04:47:06;;;;;;;58.40;25.40;;;;;;;6.98;59.24;98521.04;108080;1255;72598;-66
2023/12/03 04:49:33;;;;;;;57.00;25.50;;;;;;;6.81;59.75;98529.34;108087;1259;59626;-64
2023/12/03 04:52:01;;;;;;;67.30;26.30;;;;;;;6.98;59.43;98524.88;108054;1254;59782;-64
2023/12/03 04:54:28;;;;;;;67.00;26.10;;;;;;;7.07;59.34;98525.86;107933;1253;73009;-64
2023/12/03 04:56:56;;;;;;;58.20;23.60;;;;;;;7.13;59.19;98515.41;108109;1254;69556;-67
2023/12/03 04:59:23;;;;;;;57.70;24.10;;;;;;;7.16;59.06;98519.63;108065;1254;72336;-64
2023/12/03 05:01:51;;;;;;;64.30;26.00;;;;;;;7.07;59.37;98520.61;108055;1255;59572;-65
2023/12/03 05:04:18;;;;;;;69.00;27.60;;;;;;;7.24;59.04;98514.16;107922;1253;59461;-65
2023/12/03 05:06:46;;;;;;;71.50;27.50;;;;;;;7.26;58.78;98523.16;108070;1254;73018;-65
2023/12/03 05:09:13;;;;;;;58.80;25.20;;;;;;;7.24;58.83;98528.14;108086;1253;69291;-61
2023/12/03 05:11:41;;;;;;;71.20;27.00;;;;;;;7.38;58.65;98527.50;108046;1258;71374;-63
2023/12/03 05:14:08;;;;;;;57.60;25.50;;;;;;;7.36;58.89;98528.29;108127;1253;60905;-65
2023/12/03 05:16:37;;;;;;;75.30;28.30;;;;;;;7.41;58.52;98521.20;108046;1254;59977;-62
2023/12/03 05:19:04;;;;;;;73.10;27.80;;;;;;;7.32;58.90;98523.02;108065;1254;72104;-65
2023/12/03 05:21:32;;;;;;;60.70;25.50;;;;;;;7.18;59.38;98518.64;108128;1254;68765;-65
2023/12/03 05:23:59;;;;;;;71.40;28.00;;;;;;;7.22;59.44;98516.55;108086;1254;71459;-65
2023/12/03 05:26:27;;;;;;;64.40;27.30;;;;;;;7.20;59.54;98525.02;108131;1254;60911;-65
2023/12/03 05:28:54;;;;;;;66.80;28.50;;;;;;;7.18;59.77;98515.20;108094;1253;60155;-67
2023/12/03 05:31:22;;;;;;;62.50;25.70;;;;;;;7.37;59.13;98516.67;108028;1254;73013;-66
2023/12/03 05:33:49;;;;;;;57.30;24.70;;;;;;;7.43;59.11;98521.30;108095;1254;70116;-66
2023/12/03 05:36:24;;;;;;;64.60;26.80;;;;;;;7.52;58.80;98526.05;108072;1254;72977;-65
2023/12/03 05:38:52;;;;;;;50.90;23.10;;;;;;;7.47;59.00;98534.86;108045;1254;60930;-66
2023/12/03 05:41:20;;;;;;;60.40;24.90;;;;;;;7.40;59.26;98536.81;108070;1254;59609;-64
2023/12/03 05:43:48;;;;;;;55.90;24.50;;;;;;;7.54;58.87;98538.38;108061;1252;73214;-65
2023/12/03 05:46:15;;;;;;;54.30;23.40;;;;;;;7.66;58.68;98547.55;108060;1253;70292;-65
2023/12/03 05:48:43;;;;;;;56.50;24.10;;;;;;;7.62;58.82;98554.90;108102;1253;74727;-65
2023/12/03 05:51:11;;;;;;;59.30;24.20;;;;;;;7.58;58.98;98560.54;108123;1258;59792;-65
2023/12/03 05:53:39;;;;;;;45.20;20.80;;;;;;;7.60;58.98;98557.80;108178;1253;58990;-62
2023/12/03 05:56:07;;;;;;;45.90;21.90;;;;;;;7.68;58.77;98551.80;108128;1254;71847;-63
2023/12/03 05:58:34;;;;;;;45.70;20.80;;;;;;;7.72;58.78;98543.20;108166;1254;69563;-64
2023/12/03 06:01:02;;;;;;;41.60;19.60;;;;;;;7.55;59.19;98552.64;108132;1256;72940;-66
2023/12/03 06:03:30;;;;;;;45.70;21.80;;;;;;;7.54;59.22;98566.69;108065;1253;59583;-67
2023/12/03 06:05:58;;;;;;;42.10;21.00;;;;;;;7.61;59.30;98575.55;108064;1253;59506;-67
2023/12/03 06:08:25;;;;;;;46.20;22.20;;;;;;;7.68;59.12;98569.63;108121;1256;71969;-66
2023/12/03 06:10:53;;;;;;;42.80;21.00;;;;;;;7.84;58.74;98573.89;108123;1254;69373;-65
2023/12/03 06:13:20;;;;;;;43.70;21.30;;;;;;;7.76;58.82;98573.08;108074;1254;72698;-65
2023/12/03 06:15:47;;;;;;;45.80;21.50;;;;;;;7.80;58.85;98574.79;108068;1256;59611;-66
2023/12/03 06:18:15;;;;;;;38.90;18.40;;;;;;;7.80;58.84;98592.28;108091;1254;59643;-63
2023/12/03 06:20:43;;;;;;;42.80;20.60;;;;;;;7.92;58.50;98605.82;108089;1253;71717;-65
2023/12/03 06:23:11;;;;;;;46.20;21.60;;;;;;;8.11;58.04;98608.15;108005;1254;69155;-66
2023/12/03 06:25:41;;;;;;;40.60;19.00;;;;;;;8.26;57.74;98606.52;108115;1254;71492;-64
2023/12/03 06:28:09;;;;;;;42.90;20.30;;;;;;;8.30;57.68;98618.58;108080;1253;60863;-66
2023/12/03 06:30:37;;;;;;;38.00;19.20;;;;;;;8.16;57.85;98624.84;108079;1253;61467;-66
2023/12/03 06:33:04;;;;;;;43.00;20.30;;;;;;;8.05;58.21;98627.86;108045;1253;71766;-65
2023/12/03 06:35:32;;;;;;;38.80;18.90;;;;;;;8.26;57.54;98635.39;108054;1254;69861;-65
2023/12/03 06:37:59;;;;;;;32.00;17.50;;;;;;;8.25;57.69;98635.80;108008;1254;72748;-65
2023/12/03 06:41:19;;;;;;;34.90;18.40;;;;;;;8.35;57.59;98637.36;108043;1254;60420;-66
2023/12/03 06:43:46;;;;;;;38.70;17.70;;;;;;;8.31;57.57;98649.64;108075;1258;59272;-65
2023/12/03 06:46:14;;;;;;;31.80;15.30;;;;;;;8.15;58.06;98655.19;108099;1258;75572;-67
2023/12/03 06:48:43;;;;;;;28.20;15.00;;;;;;;8.19;58.17;98663.20;108036;1253;68940;-65
2023/12/03 06:51:10;;;;;;;32.30;15.30;;;;;;;8.25;57.89;98667.77;108077;1254;71647;-66
2023/12/03 06:53:38;;;;;;;31.10;14.80;;;;;;;8.20;58.07;98664.19;108091;1255;60319;-64
2023/12/03 06:56:09;;;;;;;31.50;16.10;;;;;;;8.27;57.94;98664.05;108083;1254;60335;-66
2023/12/03 06:58:38;;;;;;;29.70;16.70;;;;;;;8.36;57.80;98654.48;108155;1254;74318;-67
2023/12/03 07:01:07;;;;;;;26.10;14.30;;;;;;;8.41;57.56;98655.79;108105;1254;70444;-65
2023/12/03 07:03:34;;;;;;;30.70;14.50;;;;;;;8.48;57.19;98656.84;107999;1254;72764;-66
2023/12/03 07:06:02;;;;;;;29.40;14.70;;;;;;;8.35;57.49;98664.46;108000;1254;60260;-66
2023/12/03 07:08:30;;;;;;;26.50;14.50;;;;;;;8.25;57.62;98673.19;107931;1254;59910;-66
2023/12/03 07:10:58;;;;;;;23.80;13.80;;;;;;;8.27;57.43;98674.52;108005;1254;73840;-65
2023/12/03 07:13:26;;;;;;;25.40;13.20;;;;;;;8.35;57.29;98679.38;107916;1254;68888;-66
2023/12/03 07:15:53;;;;;;;28.40;14.90;;;;;;;8.32;57.27;98683.54;108057;1256;71830;-66
2023/12/03 07:18:21;;;;;;;24.60;13.10;;;;;;;8.28;57.56;98684.61;108137;1254;60357;-67
2023/12/03 07:20:48;;;;;;;22.60;12.20;;;;;;;8.05;58.06;98692.88;108031;1253;59562;-66
2023/12/03 07:23:16;;;;;;;22.80;10.00;;;;;;;8.18;57.70;98699.05;108077;1254;73862;-65
2023/12/03 07:25:43;;;;;;;24.10;12.00;;;;;;;8.25;57.65;98704.32;108087;1254;68885;-66
2023/12/03 07:28:11;;;;;;;21.60;11.40;;;;;;;8.37;57.27;98705.11;108107;1254;72736;-65
2023/12/03 07:30:38;;;;;;;25.20;12.80;;;;;;;8.27;57.11;98712.27;108103;1254;61188;-64
2023/12/03 07:33:06;;;;;;;19.10;9.70;;;;;;;8.42;56.76;98708.21;108097;1254;60084;-63
2023/12/03 07:35:33;;;;;;;23.50;10.50;;;;;;;8.47;56.36;98713.90;108151;1253;71977;-63
2023/12/03 07:38:01;;;;;;;18.70;10.00;;;;;;;8.31;56.43;98722.05;108180;1253;70205;-65
2023/12/03 07:40:28;;;;;;;20.30;10.00;;;;;;;8.33;56.24;98715.31;107974;1254;72669;-65
2023/12/03 07:42:57;;;;;;;18.00;10.00;;;;;;;8.61;55.36;98719.66;108049;1253;60915;-65
2023/12/03 07:45:24;;;;;;;16.00;8.80;;;;;;;8.71;54.99;98723.88;108239;1256;60302;-65
2023/12/03 07:47:52;;;;;;;20.50;10.50;;;;;;;8.89;54.49;98721.20;108138;1254;72646;-66
2023/12/03 07:50:20;;;;;;;17.70;9.60;;;;;;;9.01;54.14;98725.61;108125;1254;69054;-66
2023/12/03 07:52:48;;;;;;;22.10;10.90;;;;;;;9.11;53.76;98730.00;108106;1255;71955;-65
2023/12/03 07:55:15;;;;;;;18.50;9.20;;;;;;;9.14;53.56;98737.73;108104;1256;60361;-63
2023/12/03 07:57:43;;;;;;;19.60;10.40;;;;;;;9.09;53.64;98739.91;108057;1253;60579;-66
2023/12/03 08:00:11;;;;;;;16.00;9.10;;;;;;;9.04;53.72;98744.55;108048;1254;73763;-65
2023/12/03 08:02:39;;;;;;;17.10;8.70;;;;;;;8.75;54.27;98746.77;108072;1254;68975;-66
2023/12/03 08:05:07;;;;;;;18.10;9.80;;;;;;;8.76;54.29;98749.87;108070;1256;71789;-65
2023/12/03 08:07:35;;;;;;;14.90;9.10;;;;;;;8.77;54.05;98758.02;108090;1252;60823;-63
2023/12/03 08:10:03;;;;;;;15.00;8.60;;;;;;;8.78;53.94;98764.13;108100;1254;60338;-64
2023/12/03 08:12:31;;;;;;;9.40;6.50;;;;;;;8.87;53.64;98777.10;108062;1254;74638;-68
2023/12/03 08:14:58;;;;;;;13.10;7.60;;;;;;;8.86;53.74;98780.86;108044;1256;69177;-65
2023/12/03 08:17:26;;;;;;;12.40;7.40;;;;;;;8.93;53.51;98779.77;108103;1253;71977;-66
2023/12/03 08:19:53;;;;;;;11.50;7.40;;;;;;;8.75;53.75;98778.25;108032;1254;60442;-63
2023/12/03 08:22:21;;;;;;;14.20;7.80;;;;;;;8.84;53.47;98786.89;108322;1254;60208;-68
2023/12/03 08:24:50;;;;;;;11.10;6.70;;;;;;;8.77;53.53;98793.89;108199;1254;73190;-66
2023/12/03 08:27:19;;;;;;;13.10;7.30;;;;;;;8.87;53.56;98795.33;107988;1254;68872;-64
2023/12/03 08:29:46;;;;;;;13.30;7.40;;;;;;;9.03;53.29;98788.89;108099;1254;71992;-65
2023/12/03 08:32:14;;;;;;;10.50;7.10;;;;;;;9.38;52.21;98792.30;108000;1256;61414;-65
2023/12/03 08:34:41;;;;;;;11.00;5.90;;;;;;;9.22;52.38;98797.89;108070;1254;60172;-65
2023/12/03 08:37:09;;;;;;;13.10;7.70;;;;;;;8.86;52.86;98803.77;108030;1253;73885;-66
2023/12/03 08:39:36;;;;;;;11.80;7.00;;;;;;;9.04;52.31;98808.98;108171;1258;70016;-66
2023/12/03 08:42:04;;;;;;;11.80;6.90;;;;;;;9.24;52.00;98809.70;108051;1254;71475;-66
2023/12/03 08:44:32;;;;;;;13.00;7.20;;;;;;;9.19;52.11;98818.55;108070;1254;61030;-65
2023/12/03 08:47:00;;;;;;;11.70;7.40;;;;;;;9.19;51.97;98815.22;108168;1252;60458;-65
2023/12/03 08:49:28;;;;;;;12.60;7.10;;;;;;;9.14;52.03;98811.80;108061;1255;72718;-65
2023/12/03 08:51:56;;;;;;;11.00;7.10;;;;;;;9.11;52.00;98819.98;108129;1254;70017;-65
2023/12/03 08:54:23;;;;;;;13.30;5.90;;;;;;;9.09;52.21;98828.31;108102;1254;72503;-65
2023/12/03 08:56:51;;;;;;;11.50;6.60;;;;;;;9.07;51.95;98837.70;108015;1254;60349;-66
2023/12/03 08:59:19;;;;;;;12.80;7.40;;;;;;;9.03;51.88;98840.35;108007;1254;60249;-66
2023/12/03 09:01:47;;;;;;;11.70;7.10;;;;;;;9.02;51.99;98844.62;108169;1252;72876;-66
2023/12/03 09:04:16;;;;;;;11.50;7.10;;;;;;;8.94;52.16;98843.81;108242;1254;72673;-66
2023/12/03 09:06:46;;;;;;;15.30;8.00;;;;;;;8.96;52.19;98847.17;108053;1254;72494;-64
2023/12/03 09:09:13;;;;;;;14.60;8.40;;;;;;;9.07;51.90;98853.12;108178;1258;60568;-66
2023/12/03 09:11:42;;;;;;;12.70;7.60;;;;;;;8.94;51.94;98855.88;108151;1253;60025;-66
2023/12/03 09:14:10;;;;;;;15.20;8.20;;;;;;;8.64;52.08;98866.81;108223;1252;73845;-65
2023/12/03 09:16:37;;;;;;;12.40;7.60;;;;;;;8.76;51.60;98876.71;108131;1254;69043;-65
2023/12/03 09:19:05;;;;;;;14.60;8.30;;;;;;;8.85;51.59;98880.49;108140;1254;72408;-65
2023/12/03 09:21:32;;;;;;;14.90;7.70;;;;;;;8.98;51.41;98884.23;108127;1253;60450;-66
2023/12/03 09:24:00;;;;;;;13.80;8.40;;;;;;;8.77;51.45;98899.80;108194;1254;60199;-66
2023/12/03 09:26:27;;;;;;;12.70;6.40;;;;;;;8.48;51.40;98904.66;108149;1254;72657;-65
2023/12/03 09:28:55;;;;;;;12.40;7.30;;;;;;;8.53;51.16;98908.64;108109;1253;69068;-66
2023/12/03 09:31:22;;;;;;;9.80;6.00;;;;;;;8.57;50.80;98910.36;108242;1254;72745;-66
2023/12/03 09:33:50;;;;;;;12.60;8.10;;;;;;;8.45;51.02;98915.84;108131;1254;61000;-63
2023/12/03 09:36:18;;;;;;;15.50;9.00;;;;;;;8.45;51.07;98920.73;108128;1254;60506;-66
2023/12/03 09:38:45;;;;;;;12.60;7.00;;;;;;;8.52;50.98;98927.78;108116;1254;73971;-65
2023/12/03 09:41:13;;;;;;;14.50;8.20;;;;;;;8.11;51.17;98934.55;108145;1253;70321;-65
2023/12/03 09:43:42;;;;;;;18.20;10.10;;;;;;;8.33;51.12;98941.60;108166;1254;73968;-65
2023/12/03 09:46:12;;;;;;;14.70;9.30;;;;;;;8.44;50.69;98941.23;108151;1254;60466;-65
2023/12/03 09:48:42;;;;;;;10.40;6.90;;;;;;;8.19;51.21;98947.66;108244;1254;60475;-65
2023/12/03 09:51:11;;;;;;;14.50;7.80;;;;;;;7.92;51.49;98946.77;108219;1252;73856;-65
2023/12/03 09:53:43;;;;;;;16.30;9.00;;;;;;;8.00;51.51;98955.50;108128;1254;68994;-66
2023/12/03 09:56:13;;;;;;;17.40;9.10;;;;;;;7.86;51.40;98960.85;108279;1253;72553;-65
2023/12/03 09:58:45;;;;;;;15.60;8.30;;;;;;;7.91;51.32;98971.46;108139;1254;60437;-65
2023/12/03 10:01:12;;;;;;;16.90;10.20;;;;;;;7.58;51.71;98978.14;108158;1254;60327;-66
2023/12/03 10:03:39;;;;;;;17.70;10.50;;;;;;;7.85;51.11;98983.08;108183;1253;73106;-65
2023/12/03 10:06:08;;;;;;;19.20;8.60;;;;;;;7.83;51.28;98987.70;108098;1253;71449;-65
2023/12/03 10:08:37;;;;;;;18.40;10.50;;;;;;;7.66;51.57;98988.24;108021;1253;72546;-64
2023/12/03 10:11:05;;;;;;;18.10;10.10;;;;;;;7.50;51.33;98988.25;108232;1253;61203;-66
2023/12/03 10:13:34;;;;;;;14.00;7.70;;;;;;;7.35;51.65;98994.31;108188;1254;60343;-66
2023/12/03 10:16:02;;;;;;;19.70;7.30;;;;;;;7.21;51.95;98997.34;108209;1253;72669;-64
2023/12/03 10:18:30;;;;;;;18.40;10.20;;;;;;;7.06;52.23;99003.52;108235;1254;70286;-66
2023/12/03 10:21:07;;;;;;;18.00;10.30;;;;;;;7.13;52.01;99016.87;108131;1258;74894;-66
2023/12/03 10:23:35;;;;;;;19.30;9.40;;;;;;;7.26;51.68;99014.75;108168;1258;60335;-67
2023/12/03 10:26:14;;;;;;;20.10;10.50;;;;;;;7.24;51.83;99021.45;108255;1254;60333;-66
2023/12/03 10:28:42;;;;;;;17.80;11.40;;;;;;;7.47;51.31;99034.83;108200;1254;72643;-66
2023/12/03 10:31:13;;;;;;;17.40;9.50;;;;;;;7.50;50.91;99034.18;108040;1253;69396;-66
2023/12/03 10:33:43;;;;;;;18.90;11.10;;;;;;;7.27;51.07;99036.00;108064;1255;73209;-65
2023/12/03 10:36:11;;;;;;;11.70;6.90;;;;;;;7.46;50.47;99051.66;108089;1253;61936;-66
2023/12/03 10:38:40;;;;;;;15.50;8.60;;;;;;;7.19;50.54;99049.23;108126;1253;60223;-66
2023/12/03 10:41:09;;;;;;;16.80;9.40;;;;;;;7.18;50.39;99055.22;108084;1253;73880;-66
2023/12/03 10:43:40;;;;;;;14.50;8.30;;;;;;;7.37;50.06;99059.88;108157;1253;70193;-66
2023/12/03 10:46:09;;;;;;;17.10;9.60;;;;;;;7.18;50.46;99076.51;108023;1253;71702;-65
2023/12/03 10:48:37;;;;;;;14.70;8.70;;;;;;;7.24;50.05;99071.22;108013;1253;61159;-66
2023/12/03 10:51:09;;;;;;;16.60;10.10;;;;;;;7.25;49.66;99080.45;108104;1253;60205;-66
2023/12/03 10:53:37;;;;;;;15.80;8.00;;;;;;;7.40;49.44;99083.49;108025;1253;73861;-66
2023/12/03 10:56:06;;;;;;;14.30;8.30;;;;;;;7.53;49.20;99083.48;108087;1253;71533;-65
2023/12/03 10:58:38;;;;;;;15.40;9.00;;;;;;;7.44;49.18;99095.05;108045;1256;72734;-67
2023/12/03 11:01:08;;;;;;;17.20;9.60;;;;;;;7.43;49.00;99095.79;108037;1256;60408;-67
2023/12/03 11:03:56;;;;;;;15.90;9.20;;;;;;;7.65;48.67;99109.88;108041;1253;60004;-66
2023/12/03 11:06:24;;;;;;;14.30;7.60;;;;;;;7.36;48.81;99120.52;108126;1253;74590;-64
2023/12/03 11:08:54;;;;;;;13.30;8.70;;;;;;;7.37;48.73;99130.77;108032;1254;70207;-67
2023/12/03 11:11:22;;;;;;;13.20;8.60;;;;;;;7.52;48.50;99138.75;108003;1258;72010;-67
2023/12/03 11:13:52;;;;;;;14.70;9.00;;;;;;;7.40;48.12;99144.61;107950;1259;60319;-66
2023/12/03 11:16:19;;;;;;;16.00;9.80;;;;;;;6.89;49.18;99158.61;107797;1254;60364;-66
2023/12/03 11:19:11;;;;;;;15.50;9.00;;;;;;;7.20;48.94;99165.66;108030;1253;73999;-66
2023/12/03 11:21:56;;;;;;;18.40;8.80;;;;;;;7.32;48.58;99176.91;108082;1258;70039;-66
2023/12/03 11:24:50;;;;;;;16.20;9.80;;;;;;;7.54;48.13;99181.80;108092;1253;72290;-66
2023/12/03 11:27:23;;;;;;;14.10;8.10;;;;;;;7.66;47.76;99183.77;108088;1253;62156;-68
2023/12/03 11:29:52;;;;;;;14.30;7.50;;;;;;;7.31;47.94;99190.18;108075;1254;60335;-66